Time;durP1;ratioP1;P1;durP2;ratioP2;P2;SDS_P1;SDS_P2;PMS_P1;PMS_P2;Temp;Humidity;BMP_temperature;BMP_pressure;BME280_temperature;BME280_humidity;BME280_pressure;Samples;Min_cycle;Max_cycle;Signal;HPM_P1;HPM_P2
2023/01/13 07:05:57;;;;;;;5.95;1.48;;;;;;;;;;12291585;22;15391139;-84
2023/01/13 07:11:02;;;;;;;10.02;4.93;;;;;;;;;;12866581;23;20005;-84
2023/01/13 07:16:06;;;;;;;8.35;2.15;;;;;;;;;;12866617;23;20036;-84
2023/01/13 07:21:26;;;;;;;4.82;1.45;;;;;;;;;;12894305;23;20012;-84
2023/01/13 07:27:01;;;;;;;5.95;1.60;;;;;;;;;;12895670;23;20005;-84
2023/01/13 07:37:50;;;;;;;7.53;1.63;;;;;;;;;;12893367;23;20433;-84
2023/01/13 08:05:13;;;;;;;4.93;1.15;;;;;;;;;;12885066;23;20363;-84
2023/01/13 08:10:14;;;;;;;3.97;1.65;;;;;;;;;;12853524;23;20036;-81
2023/01/13 08:15:15;;;;;;;3.45;1.40;;;;;;;;;;12851931;23;20373;-82
2023/01/13 08:20:16;;;;;;;;;;;;;;;;;;12850574;23;20085;-82
2023/01/13 08:25:17;;;;;;;5.50;1.60;;;;;;;;;;12847677;23;19904;-81
2023/01/13 08:30:18;;;;;;;;;;;;;;;;;;12877765;23;20023;-80
2023/01/13 08:35:20;;;;;;;4.82;1.60;;;;;;;;;;12850829;23;19911;-80
2023/01/13 08:40:21;;;;;;;7.53;1.85;;;;;;;;;;12850835;23;20039;-81
2023/01/13 08:45:22;;;;;;;8.70;2.10;;;;;;;;;;12870623;23;20333;-82
2023/01/13 08:50:23;;;;;;;6.72;2.35;;;;;;;;;;12874257;23;20004;-81
2023/01/13 08:55:24;;;;;;;;;;;;;;;;;;12854650;23;20028;-82
2023/01/13 09:00:25;;;;;;;9.65;2.80;;;;;;;;;;12869033;23;19888;-81
2023/01/13 09:05:26;;;;;;;;;;;;;;;;;;12865799;23;20039;-82
2023/01/13 09:10:27;;;;;;;6.28;2.50;;;;;;;;;;12894979;23;19906;-81
2023/01/13 09:15:28;;;;;;;8.75;2.15;;;;;;;;;;12855371;23;20066;-82
2023/01/13 09:20:29;;;;;;;;;;;;;;;;;;12855083;23;20063;-81
2023/01/13 09:25:35;;;;;;;6.70;2.15;;;;;;;;;;12850777;23;20299;-81
2023/01/13 09:30:37;;;;;;;6.75;1.83;;;;;;;;;;12848691;23;20004;-80
2023/01/13 09:35:38;;;;;;;6.55;2.20;;;;;;;;;;12848288;23;20004;-83
2023/01/13 09:40:40;;;;;;;;;;;;;;;;;;12873024;23;20005;-85
2023/01/13 09:45:59;;;;;;;7.25;2.50;;;;;;;;;;12847275;23;19907;-82
2023/01/13 09:51:19;;;;;;;6.28;2.40;;;;;;;;;;12844224;23;20444;-82
2023/01/13 09:56:21;;;;;;;8.45;2.65;;;;;;;;;;12846552;23;20005;-82
2023/01/13 10:01:25;;;;;;;7.60;2.22;;;;;;;;;;12846418;23;20051;-83
2023/01/13 10:06:34;;;;;;;7.20;2.60;;;;;;;;;;12845409;23;20005;-82
2023/01/13 10:17:01;;;;;;;9.05;3.60;;;;;;;;;;12873604;23;20449;-82
2023/01/13 10:22:38;;;;;;;7.65;2.70;;;;;;;;;;12859645;23;20019;-82
2023/01/13 10:28:07;;;;;;;12.82;2.80;;;;;;;;;;12737655;23;20015;-82
2023/01/13 10:33:16;;;;;;;11.45;3.20;;;;;;;;;;12880720;23;20012;-82
2023/01/13 10:38:19;;;;;;;18.77;3.92;;;;;;;;;;12858327;23;20020;-83
2023/01/13 10:43:20;;;;;;;10.75;2.90;;;;;;;;;;12857115;23;20104;-82
2023/01/13 10:48:21;;;;;;;6.82;3.00;;;;;;;;;;12857201;23;20001;-82
2023/01/13 10:53:25;;;;;;;9.00;2.67;;;;;;;;;;12856127;23;20005;-82
2023/01/13 10:58:27;;;;;;;10.70;3.00;;;;;;;;;;12857597;23;20008;-84
2023/01/13 11:03:40;;;;;;;9.82;2.78;;;;;;;;;;12858250;23;20004;-82
2023/01/13 11:08:43;;;;;;;12.18;3.05;;;;;;;;;;12857801;23;20048;-82
2023/01/13 11:19:17;;;;;;;12.57;3.05;;;;;;;;;;12880628;23;20405;-82
2023/01/13 11:24:26;;;;;;;10.25;3.03;;;;;;;;;;12855892;23;20011;-83
2023/01/13 11:29:37;;;;;;;9.63;3.28;;;;;;;;;;12850890;23;20117;-81
2023/01/13 11:34:40;;;;;;;9.37;2.80;;;;;;;;;;12848732;23;20011;-81
2023/01/13 11:39:52;;;;;;;11.27;3.22;;;;;;;;;;12858512;23;20005;-81
2023/01/13 11:45:17;;;;;;;9.25;2.35;;;;;;;;;;12891486;23;20096;-82
2023/01/13 11:50:28;;;;;;;8.90;2.25;;;;;;;;;;12863973;23;20079;-82
2023/01/13 11:55:29;;;;;;;9.90;2.53;;;;;;;;;;12891482;23;20060;-82
2023/01/13 12:00:49;;;;;;;7.00;2.35;;;;;;;;;;12857658;23;20045;-83
2023/01/13 12:06:06;;;;;;;9.25;2.63;;;;;;;;;;12854895;23;20093;-83
2023/01/13 12:11:15;;;;;;;8.13;2.28;;;;;;;;;;12885338;23;19997;-83
2023/01/13 12:16:22;;;;;;;11.38;2.38;;;;;;;;;;12855012;23;20451;-83
2023/01/13 12:21:23;;;;;;;11.27;2.70;;;;;;;;;;12857085;23;20001;-83
2023/01/13 12:26:24;;;;;;;7.65;2.00;;;;;;;;;;12860802;23;20055;-82
2023/01/13 12:31:29;;;;;;;9.18;2.28;;;;;;;;;;12864271;23;20077;-82
2023/01/13 12:36:48;;;;;;;7.35;2.53;;;;;;;;;;12883962;22;20130;-83
2023/01/13 12:47:35;;;;;;;7.50;2.40;;;;;;;;;;12993934;22;20008;-84
2023/01/13 12:52:45;;;;;;;6.10;2.05;;;;;;;;;;12923093;23;20374;-83
2023/01/13 12:57:56;;;;;;;8.23;2.77;;;;;;;;;;12928985;22;20016;-84
2023/01/13 13:03:12;;;;;;;6.45;2.33;;;;;;;;;;12921079;23;20015;-83
2023/01/13 13:08:32;;;;;;;7.28;2.28;;;;;;;;;;12954954;22;19996;-83
2023/01/13 13:14:00;;;;;;;7.97;2.65;;;;;;;;;;12949801;23;20019;-83
2023/01/13 13:19:20;;;;;;;8.40;2.30;;;;;;;;;;12928387;23;20008;-84
2023/01/13 13:24:21;;;;;;;11.73;3.03;;;;;;;;;;12930613;23;20019;-83
2023/01/13 13:29:22;;;;;;;8.00;2.55;;;;;;;;;;12958128;22;20363;-84
2023/01/13 13:34:30;;;;;;;7.60;2.30;;;;;;;;;;12955504;23;20075;-84
2023/01/13 13:50:23;;;;;;;7.03;2.08;;;;;;;;;;12816497;23;20005;-83
2023/01/13 13:55:25;;;;;;;10.00;2.80;;;;;;;;;;12892565;23;20005;-84
2023/01/13 14:00:43;;;;;;;7.88;2.22;;;;;;;;;;12879633;23;20005;-83
2023/01/13 14:06:00;;;;;;;8.82;2.42;;;;;;;;;;12892040;23;20012;-83
2023/01/13 14:11:01;;;;;;;11.65;3.35;;;;;;;;;;12887238;23;20012;-82
2023/01/13 14:16:04;;;;;;;10.85;2.67;;;;;;;;;;12884183;23;20016;-83
2023/01/13 14:21:18;;;;;;;9.93;3.80;;;;;;;;;;12885086;23;20020;-85
2023/01/13 14:26:23;;;;;;;7.00;2.33;;;;;;;;;;12896513;23;20000;-83
2023/01/13 14:31:28;;;;;;;9.82;3.40;;;;;;;;;;12895985;23;20000;-84
2023/01/13 14:36:51;;;;;;;7.57;2.13;;;;;;;;;;12904859;23;20038;-83
2023/01/13 14:41:53;;;;;;;7.38;2.50;;;;;;;;;;12933613;23;20519;-83
2023/01/13 14:46:56;;;;;;;5.32;1.98;;;;;;;;;;12932691;22;20033;-83
2023/01/13 14:52:16;;;;;;;9.00;2.78;;;;;;;;;;12936120;23;20052;-83
2023/01/13 14:57:26;;;;;;;6.63;2.20;;;;;;;;;;12962296;22;20004;-84
2023/01/13 15:02:39;;;;;;;7.63;2.30;;;;;;;;;;12937964;23;20454;-83
2023/01/13 15:07:40;;;;;;;8.13;2.55;;;;;;;;;;12938927;22;20008;-84
2023/01/13 15:12:42;;;;;;;8.55;3.50;;;;;;;;;;12936553;23;20072;-84
2023/01/13 15:17:49;;;;;;;4.68;1.80;;;;;;;;;;12950998;22;20023;-86
2023/01/13 15:23:22;;;;;;;8.50;2.65;;;;;;;;;;12950031;23;20012;-85
2023/01/13 15:28:38;;;;;;;8.70;2.53;;;;;;;;;;12967584;22;20007;-84
2023/01/13 15:33:42;;;;;;;10.30;3.03;;;;;;;;;;12968568;23;20060;-85
2023/01/13 15:38:43;;;;;;;;;;;;;;;;;;12945008;23;20054;-83
2023/01/13 15:49:33;;;;;;;8.85;3.03;;;;;;;;;;12977168;22;20008;-84
2023/01/13 15:54:40;;;;;;;10.30;3.95;;;;;;;;;;12976785;23;20000;-84
2023/01/13 15:59:55;;;;;;;5.63;2.30;;;;;;;;;;12949934;23;20052;-85
2023/01/13 16:05:02;;;;;;;8.55;2.58;;;;;;;;;;12951569;23;20068;-84
2023/01/13 16:10:06;;;;;;;8.23;3.55;;;;;;;;;;12946985;23;20020;-84
2023/01/13 16:15:07;;;;;;;9.25;2.88;;;;;;;;;;12945478;23;20004;-84
2023/01/13 16:20:17;;;;;;;6.07;2.13;;;;;;;;;;12939439;23;20004;-84
2023/01/13 16:25:45;;;;;;;7.30;2.33;;;;;;;;;;12938863;23;20076;-84
2023/01/13 16:30:52;;;;;;;9.38;3.40;;;;;;;;;;12935222;23;20015;-84
2023/01/13 16:35:55;;;;;;;6.97;2.85;;;;;;;;;;12936618;22;20019;-84
2023/01/13 16:41:01;;;;;;;7.78;3.75;;;;;;;;;;12938030;23;20012;-84
2023/01/13 16:46:14;;;;;;;5.35;2.22;;;;;;;;;;12960409;22;20009;-83
2023/01/13 16:51:15;;;;;;;8.02;3.63;;;;;;;;;;12935242;23;20103;-82
2023/01/13 16:56:16;;;;;;;7.85;2.30;;;;;;;;;;12965746;22;20000;-83
2023/01/13 17:01:20;;;;;;;9.48;2.65;;;;;;;;;;12940291;23;20130;-83
2023/01/13 17:06:27;;;;;;;5.85;2.85;;;;;;;;;;12938353;22;20020;-82
2023/01/13 17:11:28;;;;;;;9.25;3.17;;;;;;;;;;12964794;23;20031;-84
2023/01/13 17:16:31;;;;;;;4.93;1.88;;;;;;;;;;12931364;22;20031;-82
2023/01/13 17:21:33;;;;;;;5.63;2.10;;;;;;;;;;12919623;23;20008;-86
2023/01/13 17:26:47;;;;;;;6.13;2.33;;;;;;;;;;12910027;22;20042;-87
2023/01/13 17:37:29;;;;;;;7.35;2.13;;;;;;;;;;12646814;23;20018;-87
2023/01/13 17:42:34;;;;;;;12.07;2.55;;;;;;;;;;12888915;23;20019;-88
2023/01/13 17:47:38;;;;;;;9.30;2.70;;;;;;;;;;12910506;22;20004;-85
